createdAt,value
2019-05-01T00:00:57.192Z,96.02
2019-05-01T00:01:57.370Z,95.15
2019-05-01T00:02:57.546Z,94.74
2019-05-01T00:03:57.727Z,94.74
2019-05-01T00:04:58.882Z,94.74
2019-05-01T00:05:58.058Z,94.27
2019-05-01T00:06:58.230Z,94.37
2019-05-01T00:07:58.865Z,94.47
2019-05-01T00:08:59.515Z,95.09
2019-05-01T00:09:58.661Z,95.50
2019-05-01T00:10:58.826Z,95.09
2019-05-01T00:11:58.963Z,95.45
2019-05-01T00:12:59.119Z,95.50
2019-05-01T00:13:59.275Z,95.45
2019-05-01T00:14:59.411Z,95.76
2019-05-01T00:15:59.595Z,95.45
2019-05-01T00:16:59.733Z,95.76
2019-05-01T00:17:59.857Z,94.93
2019-05-01T00:19:00.015Z,95.76
2019-05-01T00:20:00.132Z,96.17
2019-05-01T00:21:00.295Z,96.06
2019-05-01T00:22:00.442Z,95.76
2019-05-01T00:23:00.611Z,96.42
2019-05-01T00:24:00.868Z,95.55
2019-05-01T00:25:01.964Z,96.31
2019-05-01T00:26:01.087Z,96.42
2019-05-01T00:27:01.376Z,96.62
2019-05-01T00:28:02.367Z,96.01
2019-05-01T00:29:01.592Z,95.59
2019-05-01T00:30:01.756Z,95.95
2019-05-01T00:31:01.915Z,96.26
2019-05-01T00:32:02.111Z,96.31
2019-05-01T00:33:02.259Z,96.42
2019-05-01T00:34:02.415Z,96.31
2019-05-01T00:35:02.611Z,96.31
2019-05-01T00:36:03.364Z,96.31
2019-05-01T00:37:02.927Z,96.36
2019-05-01T00:38:03.118Z,96.88
2019-05-01T00:39:03.298Z,96.88
2019-05-01T00:40:03.457Z,97.19
2019-05-01T00:41:04.367Z,96.98
2019-05-01T00:42:03.771Z,96.98
2019-05-01T00:43:03.973Z,96.73
2019-05-01T00:44:04.158Z,96.94
2019-05-01T00:45:04.320Z,96.83
2019-05-01T00:46:04.505Z,96.31
2019-05-01T00:47:04.676Z,96.01
2019-05-01T00:48:04.847Z,95.49
2019-05-01T00:49:05.050Z,95.22
2019-05-01T00:50:05.245Z,95.22
2019-05-01T00:51:05.433Z,94.60
2019-05-01T00:52:05.630Z,94.81
2019-05-01T00:53:06.376Z,96.05
2019-05-01T00:54:06.382Z,96.36
2019-05-01T00:55:06.050Z,96.88
2019-05-01T00:56:06.885Z,96.88
2019-05-01T00:57:06.414Z,96.67
2019-05-01T00:58:06.582Z,96.61
2019-05-01T00:59:06.874Z,96.61
2019-05-01T01:00:06.926Z,96.72
2019-05-01T01:01:07.112Z,96.41
2019-05-01T01:02:07.274Z,96.82
2019-05-01T01:03:07.430Z,97.96
2019-05-01T01:04:07.595Z,97.85
2019-05-01T01:05:07.772Z,97.85
2019-05-01T01:06:07.948Z,97.75
2019-05-01T01:07:08.138Z,97.54
2019-05-01T01:08:08.337Z,97.33
2019-05-01T01:09:08.500Z,97.28
2019-05-01T01:10:08.669Z,97.64
2019-05-01T01:11:08.857Z,98.00
2019-05-01T01:12:09.039Z,97.85
2019-05-01T01:13:09.207Z,98.10
2019-05-01T01:14:09.379Z,97.38
2019-05-01T01:15:09.538Z,98.10
2019-05-01T01:16:09.883Z,97.49
2019-05-01T01:17:10.383Z,97.38
2019-05-01T01:18:10.151Z,97.07
2019-05-01T01:19:10.320Z,97.42
2019-05-01T01:20:10.469Z,97.38
2019-05-01T01:21:10.634Z,98.10
2019-05-01T01:22:10.821Z,97.53
2019-05-01T01:23:10.968Z,97.94
2019-05-01T01:24:11.134Z,98.00
2019-05-01T01:25:11.319Z,97.22
2019-05-01T01:26:11.497Z,97.11
2019-05-01T01:27:11.716Z,96.59
2019-05-01T01:28:11.877Z,97.11
2019-05-01T01:29:12.060Z,97.16
2019-05-01T01:30:12.249Z,97.57
2019-05-01T01:31:12.448Z,97.11
2019-05-01T01:32:12.627Z,97.22
2019-05-01T01:33:12.805Z,97.06
2019-05-01T01:34:12.982Z,96.64
2019-05-01T01:35:13.180Z,96.64
2019-05-01T01:36:13.886Z,96.06
2019-05-01T01:37:13.545Z,96.54
2019-05-01T01:38:13.719Z,96.23
2019-05-01T01:39:13.907Z,96.58
2019-05-01T01:40:14.096Z,96.23
2019-05-01T01:41:14.251Z,97.57
2019-05-01T01:42:14.437Z,97.99
2019-05-01T01:43:14.622Z,97.88
2019-05-01T01:44:14.805Z,98.30
2019-05-01T01:45:14.980Z,98.61
2019-05-01T01:46:15.132Z,97.99
2019-05-01T01:47:15.267Z,98.19
2019-05-01T01:48:15.450Z,97.78
2019-05-01T01:49:15.605Z,98.19
2019-05-01T01:50:15.757Z,98.30
2019-05-01T01:51:15.905Z,98.30
2019-05-01T01:52:16.068Z,97.94
2019-05-01T01:53:16.239Z,98.30
2019-05-01T01:54:16.435Z,97.88
2019-05-01T01:55:16.617Z,97.88
2019-05-01T01:56:17.356Z,98.30
2019-05-01T01:57:18.018Z,98.97
2019-05-01T01:58:17.172Z,98.19
2019-05-01T01:59:17.369Z,98.40
2019-05-01T02:00:17.527Z,98.30
2019-05-01T02:01:17.673Z,97.36
2019-05-01T02:02:17.799Z,97.20
2019-05-01T02:03:17.985Z,96.79
2019-05-01T02:04:18.888Z,97.10
2019-05-01T02:05:18.282Z,96.48
2019-05-01T02:06:18.442Z,96.48
2019-05-01T02:07:18.608Z,96.58
2019-05-01T02:08:18.835Z,97.35
2019-05-01T02:09:19.013Z,97.14
2019-05-01T02:10:19.248Z,98.65
2019-05-01T02:11:19.314Z,99.27
2019-05-01T02:12:19.497Z,99.99
2019-05-01T02:13:19.665Z,99.13
2019-05-01T02:14:19.846Z,99.13
2019-05-01T02:15:20.013Z,99.64
2019-05-01T02:16:20.162Z,99.02
2019-05-01T02:17:20.320Z,99.23
2019-05-01T02:18:20.890Z,98.34
2019-05-01T02:19:20.676Z,99.13
2019-05-01T02:20:21.831Z,99.23
2019-05-01T02:21:20.986Z,98.19
2019-05-01T02:22:21.149Z,98.30
2019-05-01T02:23:21.424Z,98.92
2019-05-01T02:24:21.446Z,99.54
2019-05-01T02:25:21.547Z,98.71
2019-05-01T02:26:21.786Z,99.13
2019-05-01T02:27:22.389Z,97.67
2019-05-01T02:28:22.247Z,98.30
2019-05-01T02:29:22.474Z,98.09
2019-05-01T02:30:22.679Z,98.24
2019-05-01T02:31:28.066Z,97.41
2019-05-01T02:32:25.121Z,97.41
2019-05-01T02:33:23.351Z,97.41
2019-05-01T02:34:23.481Z,96.31
2019-05-01T02:35:23.571Z,96.73
2019-05-01T02:36:23.768Z,96.94
2019-05-01T02:37:23.918Z,97.04
2019-05-01T02:38:24.165Z,97.66
2019-05-01T02:39:24.411Z,98.28
2019-05-01T02:40:24.521Z,99.17
2019-05-01T02:41:24.666Z,99.07
2019-05-01T02:42:24.804Z,99.99
2019-05-01T02:43:24.945Z,99.79
2019-05-01T02:44:25.214Z,99.64
2019-05-01T02:45:25.354Z,99.99
2019-05-01T02:46:25.496Z,98.96
2019-05-01T02:47:25.652Z,99.99
2019-05-01T02:48:25.807Z,99.99
2019-05-01T02:49:25.964Z,99.27
2019-05-01T02:50:26.130Z,99.17
2019-05-01T02:51:26.880Z,98.96
2019-05-01T02:52:26.492Z,99.38
2019-05-01T02:53:26.639Z,98.96
2019-05-01T02:54:26.896Z,98.91
2019-05-01T02:55:27.402Z,99.11
2019-05-01T02:56:27.072Z,99.22
2019-05-01T02:57:27.225Z,99.58
2019-05-01T02:58:27.379Z,99.58
2019-05-01T02:59:27.522Z,99.27
2019-05-01T03:00:27.698Z,99.69
2019-05-01T03:01:44.695Z,99.17
2019-05-01T03:02:30.100Z,98.39
2019-05-01T03:03:28.349Z,97.66
2019-05-01T03:04:28.504Z,98.28
2019-05-01T03:05:28.661Z,97.97
2019-05-01T03:06:28.787Z,99.43
2019-05-01T03:07:28.932Z,99.52
2019-05-01T03:08:29.058Z,99.22
2019-05-01T03:09:29.204Z,99.43
2019-05-01T03:10:29.892Z,99.94
2019-05-01T03:11:29.621Z,99.43
2019-05-01T03:12:29.744Z,99.32
2019-05-01T03:13:29.867Z,99.99
2019-05-01T03:14:29.999Z,99.99
2019-05-01T03:15:30.150Z,99.99
2019-05-01T03:16:30.331Z,99.84
2019-05-01T03:17:30.463Z,99.99
2019-05-01T03:18:30.619Z,99.99
2019-05-01T03:19:30.781Z,99.84
2019-05-01T03:20:30.904Z,99.73
2019-05-01T03:21:31.057Z,99.94
2019-05-01T03:22:31.196Z,99.63
2019-05-01T03:23:31.350Z,99.22
2019-05-01T03:24:31.526Z,99.01
2019-05-01T03:25:31.662Z,99.01
2019-05-01T03:26:31.789Z,99.01
2019-05-01T03:27:31.938Z,99.01
2019-05-01T03:28:32.067Z,98.54
2019-05-01T03:29:32.231Z,98.49
2019-05-01T03:30:32.383Z,99.16
2019-05-01T03:31:32.520Z,98.33
2019-05-01T03:32:32.694Z,99.47
2019-05-01T03:33:33.847Z,98.43
2019-05-01T03:34:33.978Z,98.54
2019-05-01T03:35:33.179Z,99.05
2019-05-01T03:36:34.234Z,98.95
2019-05-01T03:37:33.378Z,99.47
2019-05-01T03:38:34.390Z,99.26
2019-05-01T03:39:33.768Z,98.85
2019-05-01T03:40:33.926Z,99.37
2019-05-01T03:41:34.092Z,99.37
2019-05-01T03:42:34.295Z,99.88
2019-05-01T03:43:34.485Z,99.84
2019-05-01T03:44:34.666Z,99.99
2019-05-01T03:45:34.806Z,99.52
2019-05-01T03:46:34.953Z,99.99
2019-05-01T03:47:35.110Z,99.84
2019-05-01T03:48:35.894Z,99.01
2019-05-01T03:49:35.539Z,99.22
2019-05-01T03:50:35.703Z,99.37
2019-05-01T03:51:35.858Z,99.26
2019-05-01T03:52:36.021Z,99.47
2019-05-01T03:53:36.234Z,99.99
2019-05-01T03:54:36.447Z,99.05
2019-05-01T03:55:36.639Z,99.26
2019-05-01T03:56:36.814Z,99.26
2019-05-01T03:57:37.876Z,99.47
2019-05-01T03:58:37.129Z,99.47
2019-05-01T03:59:37.351Z,98.85
2019-05-01T04:00:38.380Z,98.54
2019-05-01T04:01:37.737Z,98.07
2019-05-01T04:02:37.879Z,97.80
2019-05-01T04:03:38.030Z,97.59
2019-05-01T04:04:38.190Z,98.07
2019-05-01T04:05:38.880Z,98.17
2019-05-01T04:06:38.908Z,97.86
2019-05-01T04:07:38.663Z,98.07
2019-05-01T04:08:38.830Z,98.79
2019-05-01T04:09:39.057Z,99.10
2019-05-01T04:10:39.221Z,99.21
2019-05-01T04:11:39.379Z,99.62
2019-05-01T04:12:39.533Z,99.62
2019-05-01T04:13:39.709Z,99.31
2019-05-01T04:14:39.877Z,99.31
2019-05-01T04:15:40.020Z,99.16
2019-05-01T04:16:40.247Z,99.68
2019-05-01T04:17:40.425Z,99.99
2019-05-01T04:18:40.563Z,99.99
2019-05-01T04:19:40.728Z,99.99
2019-05-01T04:20:40.910Z,99.99
2019-05-01T04:21:41.065Z,99.99
2019-05-01T04:22:41.235Z,99.99
2019-05-01T04:23:41.391Z,99.99
2019-05-01T04:24:41.551Z,99.99
2019-05-01T04:25:41.748Z,99.99
2019-05-01T04:26:42.909Z,99.99
2019-05-01T04:27:42.156Z,99.99
2019-05-01T04:28:42.338Z,99.99
2019-05-01T04:29:42.500Z,99.90
2019-05-01T04:30:42.644Z,99.99
2019-05-01T04:31:42.812Z,99.99
2019-05-01T04:32:52.822Z,99.99
2019-05-01T04:33:45.226Z,99.99
2019-05-01T04:34:43.348Z,99.99
2019-05-01T04:35:43.604Z,99.99
2019-05-01T04:36:44.400Z,99.76
2019-05-01T04:37:43.819Z,99.96
2019-05-01T04:38:43.984Z,99.14
2019-05-01T04:39:45.152Z,98.93
2019-05-01T04:40:44.317Z,98.93
2019-05-01T04:41:45.387Z,98.31
2019-05-01T04:42:44.638Z,98.37
2019-05-01T04:43:45.405Z,98.99
2019-05-01T04:44:45.039Z,98.27
2019-05-01T04:45:45.201Z,97.75
2019-05-01T04:46:46.380Z,97.54
2019-05-01T04:47:45.482Z,97.85
2019-05-01T04:48:45.699Z,98.06
2019-05-01T04:49:45.862Z,97.75
2019-05-01T04:50:46.066Z,98.37
2019-05-01T04:51:46.269Z,97.64
2019-05-01T04:52:46.454Z,98.11
2019-05-01T04:53:46.626Z,97.60
2019-05-01T04:54:46.794Z,98.22
2019-05-01T04:55:46.956Z,98.01
2019-05-01T04:56:47.137Z,97.14
2019-05-01T04:57:47.295Z,97.29
2019-05-01T04:58:47.451Z,96.88
2019-05-01T04:59:47.720Z,96.77
2019-05-01T05:00:48.403Z,97.08
2019-05-01T05:01:47.961Z,98.11
2019-05-01T05:02:48.188Z,97.86
2019-05-01T05:03:48.327Z,97.97
2019-05-01T05:04:49.520Z,97.14
2019-05-01T05:05:48.790Z,96.62
2019-05-01T05:06:48.964Z,95.70
2019-05-01T05:07:49.093Z,95.59
2019-05-01T05:08:49.217Z,95.39
2019-05-01T05:09:49.891Z,95.39
2019-05-01T05:10:50.392Z,95.55
2019-05-01T05:11:49.760Z,95.55
2019-05-01T05:12:49.969Z,95.14
2019-05-01T05:13:50.891Z,95.81
2019-05-01T05:14:50.238Z,95.30
2019-05-01T05:15:50.469Z,95.09
2019-05-01T05:16:50.702Z,94.68
2019-05-01T05:17:50.976Z,94.57
2019-05-01T05:18:51.089Z,95.20
2019-05-01T05:19:51.335Z,95.20
2019-05-01T05:20:51.460Z,95.30
2019-05-01T05:21:51.583Z,94.27
2019-05-01T05:22:51.739Z,93.96
2019-05-01T05:23:51.902Z,94.06
2019-05-01T05:24:52.032Z,94.27
2019-05-01T05:25:52.918Z,94.17
2019-05-01T05:26:52.410Z,94.27
2019-05-01T05:27:52.591Z,93.96
2019-05-01T05:28:52.713Z,94.78
2019-05-01T05:29:52.839Z,94.57
2019-05-01T05:30:52.977Z,94.37
2019-05-01T05:31:53.112Z,94.17
2019-05-01T05:32:53.239Z,94.27
2019-05-01T05:33:54.403Z,94.74
2019-05-01T05:34:53.521Z,94.23
2019-05-01T05:35:54.396Z,94.49
2019-05-01T05:36:53.771Z,94.18
2019-05-01T05:37:54.394Z,94.13
2019-05-01T05:38:54.138Z,93.73
2019-05-01T05:39:54.291Z,94.24
2019-05-01T05:40:54.433Z,93.52
2019-05-01T05:41:54.553Z,93.52
2019-05-01T05:42:54.694Z,93.87
2019-05-01T05:43:54.890Z,93.77
2019-05-01T05:44:55.057Z,94.80
2019-05-01T05:45:55.210Z,95.17
2019-05-01T05:46:55.334Z,96.09
2019-05-01T05:47:55.537Z,95.73
2019-05-01T05:48:55.729Z,96.66
2019-05-01T05:49:56.396Z,97.94
2019-05-01T05:50:56.054Z,98.76
2019-05-01T05:51:56.228Z,98.76
2019-05-01T05:52:56.899Z,99.58
2019-05-01T05:53:57.402Z,99.33
2019-05-01T05:54:56.800Z,98.50
2019-05-01T05:55:56.984Z,98.41
2019-05-01T05:56:57.186Z,97.99
2019-05-01T05:57:57.348Z,97.89
2019-05-01T05:58:57.541Z,97.48
2019-05-01T05:59:57.921Z,97.68
2019-05-01T06:00:57.846Z,97.89
2019-05-01T06:01:58.004Z,97.64
2019-05-01T06:02:58.165Z,97.95
2019-05-01T06:03:58.313Z,97.74
2019-05-01T06:04:58.504Z,97.53
2019-05-01T06:05:58.673Z,97.85
2019-05-01T06:06:58.825Z,97.48
2019-05-01T06:07:59.912Z,97.74
2019-05-01T06:08:59.158Z,98.71
2019-05-01T06:09:59.305Z,98.50
2019-05-01T06:11:00.166Z,98.86
2019-05-01T06:12:04.783Z,99.33
2019-05-01T06:13:00.784Z,99.54
2019-05-01T06:14:00.029Z,99.13
2019-05-01T06:15:06.028Z,99.70
2019-05-01T06:16:02.302Z,98.36
2019-05-01T06:17:00.532Z,97.78
2019-05-01T06:18:04.161Z,98.10
2019-05-01T06:19:01.842Z,98.41
2019-05-01T06:20:00.944Z,99.13
2019-05-01T06:21:02.266Z,99.64
2019-05-01T06:22:04.996Z,99.64
2019-05-01T06:23:03.412Z,99.99
2019-05-01T06:24:06.461Z,99.99
2019-05-01T06:25:03.858Z,99.99
2019-05-01T06:26:02.579Z,99.64
2019-05-01T06:27:03.295Z,99.54
2019-05-01T06:28:02.399Z,99.99
2019-05-01T06:29:02.644Z,99.64
2019-05-01T06:30:06.494Z,99.54
2019-05-01T06:31:04.019Z,99.70
2019-05-01T06:32:03.177Z,99.39
2019-05-01T06:33:04.221Z,99.23
2019-05-01T06:34:05.522Z,99.80
2019-05-01T06:35:04.665Z,99.99
2019-05-01T06:36:03.910Z,99.43
2019-05-01T06:37:05.171Z,99.99
2019-05-01T06:38:04.423Z,99.99
2019-05-01T06:39:06.755Z,99.99
2019-05-01T06:40:06.775Z,99.99
2019-05-01T06:41:04.983Z,99.86
2019-05-01T06:42:05.115Z,99.65
2019-05-01T06:43:05.271Z,99.40
2019-05-01T06:44:07.585Z,98.32
2019-05-01T06:45:06.513Z,98.72
2019-05-01T06:46:06.412Z,98.42
2019-05-01T06:47:05.879Z,97.65
2019-05-01T06:48:06.049Z,97.86
2019-05-01T06:49:07.105Z,97.80
2019-05-01T06:50:07.573Z,97.80
2019-05-01T06:51:07.411Z,98.47
2019-05-01T06:52:06.628Z,98.27
2019-05-01T06:53:06.874Z,97.86
2019-05-01T06:54:11.397Z,97.49
2019-05-01T06:55:08.275Z,97.69
2019-05-01T06:56:08.408Z,97.69
2019-05-01T06:57:07.644Z,98.32
2019-05-01T06:58:08.415Z,98.83
2019-05-01T06:59:08.043Z,98.68
2019-05-01T07:00:09.448Z,98.47
2019-05-01T07:01:08.394Z,97.34
2019-05-01T07:02:08.529Z,97.30
2019-05-01T07:03:10.464Z,96.78
2019-05-01T07:04:09.913Z,96.42
2019-05-01T07:05:14.551Z,97.44
2019-05-01T07:06:14.377Z,97.44
2019-05-01T07:07:24.750Z,97.39
2019-05-01T07:08:23.979Z,97.65
2019-05-01T07:09:11.931Z,97.86
2019-05-01T07:10:11.060Z,97.60
2019-05-01T07:11:10.868Z,97.55
2019-05-01T07:12:12.382Z,97.39
2019-05-01T07:13:10.597Z,97.34
2019-05-01T07:14:11.115Z,97.55
2019-05-01T07:15:12.989Z,97.34
2019-05-01T07:16:11.188Z,96.73
2019-05-01T07:17:13.544Z,96.33
2019-05-01T07:18:12.556Z,96.08
2019-05-01T07:19:11.699Z,94.95
2019-05-01T07:20:16.571Z,95.05
2019-05-01T07:21:13.041Z,94.95
2019-05-01T07:22:12.173Z,94.37
2019-05-01T07:23:12.779Z,94.84
2019-05-01T07:24:13.530Z,93.96
2019-05-01T07:25:13.417Z,93.82
2019-05-01T07:26:13.710Z,94.54
2019-05-01T07:27:13.984Z,94.84
2019-05-01T07:28:13.116Z,93.71
2019-05-01T07:29:13.303Z,92.70
2019-05-01T07:30:15.900Z,92.19
2019-05-01T07:31:15.621Z,91.53
2019-05-01T07:32:15.152Z,92.74
2019-05-01T07:33:16.642Z,93.05
2019-05-01T07:34:16.648Z,93.51
2019-05-01T07:35:15.370Z,93.82
2019-05-01T07:36:16.318Z,93.61
2019-05-01T07:37:15.640Z,93.82
2019-05-01T07:38:14.826Z,93.36
2019-05-01T07:39:15.858Z,91.88
2019-05-01T07:40:15.187Z,90.97
2019-05-01T07:41:15.340Z,88.88
2019-05-01T07:42:15.529Z,88.12
2019-05-01T07:43:18.990Z,87.71
2019-05-01T07:44:16.927Z,87.71
2019-05-01T07:45:16.070Z,88.27
2019-05-01T07:46:18.462Z,88.57
2019-05-01T07:47:18.423Z,88.37
2019-05-01T07:48:16.670Z,88.62
2019-05-01T07:49:17.695Z,91.31
2019-05-01T07:50:18.032Z,92.33
2019-05-01T07:51:17.219Z,92.95
2019-05-01T07:52:18.730Z,93.32
2019-05-01T07:53:17.590Z,92.85
2019-05-01T07:54:17.760Z,92.50
2019-05-01T07:55:20.103Z,92.40
2019-05-01T07:56:18.212Z,92.21
2019-05-01T07:57:18.370Z,90.01
2019-05-01T07:58:18.538Z,89.97
2019-05-01T07:59:22.874Z,87.77
2019-05-01T08:00:20.922Z,86.44
2019-05-01T08:01:20.159Z,86.77
2019-05-01T08:02:19.330Z,87.77
2019-05-01T08:03:20.425Z,87.10
2019-05-01T08:04:35.233Z,88.39
2019-05-01T08:05:20.907Z,87.77
2019-05-01T08:06:21.487Z,88.37
2019-05-01T08:07:21.235Z,88.94
2019-05-01T08:08:20.463Z,87.77
2019-05-01T08:09:20.607Z,89.00
2019-05-01T08:10:21.024Z,87.73
2019-05-01T08:11:21.974Z,87.16
2019-05-01T08:12:23.927Z,88.94
2019-05-01T08:13:22.202Z,90.22
2019-05-01T08:14:21.441Z,89.90
2019-05-01T08:15:22.582Z,90.16
2019-05-01T08:16:23.758Z,91.08
2019-05-01T08:17:21.848Z,91.08
2019-05-01T08:18:24.082Z,90.97
2019-05-01T08:19:24.231Z,91.28
2019-05-01T08:20:22.453Z,90.77
2019-05-01T08:21:26.004Z,90.79
2019-05-01T08:22:23.758Z,89.21
2019-05-01T08:23:22.902Z,88.49
2019-05-01T08:24:24.726Z,87.12
2019-05-01T08:25:24.253Z,87.37
2019-05-01T08:26:23.474Z,87.43
2019-05-01T08:27:23.602Z,86.57
2019-05-01T08:28:27.616Z,86.16
2019-05-01T08:29:23.862Z,85.64
2019-05-01T08:30:24.443Z,85.30
2019-05-01T08:31:27.776Z,84.99
2019-05-01T08:32:25.544Z,85.71
2019-05-01T08:33:24.782Z,86.57
2019-05-01T08:34:25.404Z,85.96
2019-05-01T08:35:26.117Z,86.77
2019-05-01T08:36:25.358Z,87.53
2019-05-01T08:37:27.126Z,86.57
2019-05-01T08:38:29.867Z,87.55
2019-05-01T08:39:26.828Z,85.88
2019-05-01T08:40:26.048Z,83.83
2019-05-01T08:41:27.016Z,83.52
2019-05-01T08:42:28.430Z,83.59
2019-05-01T08:43:26.939Z,82.83
2019-05-01T08:44:29.537Z,81.98
2019-05-01T08:45:28.045Z,81.87
2019-05-01T08:46:27.280Z,81.81
2019-05-01T08:47:27.934Z,82.93
2019-05-01T08:48:30.870Z,82.73
2019-05-01T08:49:28.792Z,83.14
2019-05-01T08:50:27.914Z,82.77
2019-05-01T08:51:29.996Z,83.69
2019-05-01T08:52:30.310Z,85.94
2019-05-01T08:53:28.409Z,83.28
2019-05-01T08:54:28.881Z,82.83
2019-05-01T08:55:29.747Z,82.63
2019-05-01T08:56:28.876Z,82.39
2019-05-01T08:57:50.072Z,82.04
2019-05-01T08:58:29.170Z,82.31
2019-05-01T08:59:29.348Z,81.39
2019-05-01T09:00:30.927Z,80.84
2019-05-01T09:01:31.644Z,79.35
2019-05-01T09:02:29.878Z,80.74
2019-05-01T09:03:30.061Z,79.07
2019-05-01T09:04:32.244Z,77.64
2019-05-01T09:05:33.937Z,79.38
2019-05-01T09:06:34.866Z,78.02
2019-05-01T09:07:33.449Z,76.97
2019-05-01T09:08:32.162Z,79.39
2019-05-01T09:09:33.331Z,81.23
2019-05-01T09:10:32.313Z,80.78
2019-05-01T09:11:31.786Z,80.68
2019-05-01T09:12:32.584Z,78.53
2019-05-01T09:13:31.756Z,79.35
2019-05-01T09:14:35.177Z,77.48
2019-05-01T09:15:33.075Z,76.49
2019-05-01T09:16:32.229Z,75.84
2019-05-01T09:17:32.400Z,75.81
2019-05-01T09:18:32.624Z,74.52
2019-05-01T09:19:32.809Z,72.34
2019-05-01T09:20:34.007Z,72.58
2019-05-01T09:21:37.183Z,73.19
2019-05-01T09:22:34.384Z,72.17
2019-05-01T09:23:34.624Z,72.31
2019-05-01T09:24:34.688Z,73.77
2019-05-01T09:25:35.231Z,75.23
2019-05-01T09:26:35.943Z,75.54
2019-05-01T09:27:34.236Z,75.74
2019-05-01T09:28:36.021Z,76.49
2019-05-01T09:29:35.548Z,75.23
2019-05-01T09:30:35.829Z,74.24
2019-05-01T09:31:35.558Z,73.33
2019-05-01T09:32:36.183Z,70.96
2019-05-01T09:33:35.340Z,72.96
2019-05-01T09:34:35.527Z,71.53
2019-05-01T09:35:40.283Z,69.64
2019-05-01T09:36:36.905Z,68.90
2019-05-01T09:37:36.936Z,67.28
2019-05-01T09:38:36.215Z,68.76
2019-05-01T09:39:36.440Z,70.62
2019-05-01T09:40:36.624Z,70.08
2019-05-01T09:41:38.405Z,67.22
2019-05-01T09:42:37.970Z,66.30
2019-05-01T09:43:37.944Z,65.47
2019-05-01T09:44:37.344Z,66.24
2019-05-01T09:45:37.529Z,65.06
2019-05-01T09:46:37.782Z,68.12
2019-05-01T09:47:37.930Z,69.47
2019-05-01T09:48:38.080Z,67.48
2019-05-01T09:49:38.226Z,68.15
2019-05-01T09:50:38.400Z,68.83
2019-05-01T09:51:42.590Z,70.18
2019-05-01T09:52:39.717Z,69.27
2019-05-01T09:53:41.111Z,69.27
2019-05-01T09:54:43.041Z,71.30
2019-05-01T09:55:40.178Z,70.48
2019-05-01T09:56:39.460Z,71.26
2019-05-01T09:57:41.497Z,67.65
2019-05-01T09:58:40.814Z,66.20
2019-05-01T09:59:40.047Z,66.71
2019-05-01T10:00:40.185Z,66.03
2019-05-01T10:01:40.353Z,70.25
2019-05-01T10:02:42.089Z,70.45
2019-05-01T10:03:41.645Z,66.31
2019-05-01T10:04:40.777Z,64.00
2019-05-01T10:05:42.829Z,64.40
2019-05-01T10:06:42.462Z,61.41
2019-05-01T10:07:41.232Z,60.72
2019-05-01T10:08:42.407Z,57.48
2019-05-01T10:09:42.652Z,58.41
2019-05-01T10:10:42.474Z,64.98
2019-05-01T10:11:42.106Z,61.76
2019-05-01T10:12:47.014Z,60.61
2019-05-01T10:13:44.290Z,62.28
2019-05-01T10:14:42.408Z,60.68
2019-05-01T10:15:42.577Z,59.55
2019-05-01T10:16:42.758Z,59.42
2019-05-01T10:17:42.897Z,59.14
2019-05-01T10:18:43.079Z,60.00
2019-05-01T10:19:43.237Z,61.88
2019-05-01T10:20:43.391Z,62.14
2019-05-01T10:21:43.519Z,62.92
2019-05-01T10:22:43.679Z,63.73
2019-05-01T10:23:47.126Z,60.84
2019-05-01T10:24:45.004Z,61.16
2019-05-01T10:25:48.100Z,58.81
2019-05-01T10:26:46.262Z,61.11
2019-05-01T10:27:45.428Z,60.41
2019-05-01T10:28:45.204Z,59.80
2019-05-01T10:29:45.810Z,62.85
2019-05-01T10:30:45.043Z,66.75
2019-05-01T10:31:46.658Z,63.93
2019-05-01T10:32:46.431Z,62.15
2019-05-01T10:33:45.543Z,61.66
2019-05-01T10:34:45.744Z,60.74
2019-05-01T10:35:45.907Z,59.77
2019-05-01T10:36:49.885Z,60.98
2019-05-01T10:37:48.191Z,59.62
2019-05-01T10:38:46.887Z,57.15
2019-05-01T10:39:50.266Z,57.22
2019-05-01T10:40:48.691Z,57.52
2019-05-01T10:41:47.924Z,56.14
2019-05-01T10:42:46.980Z,58.44
2019-05-01T10:43:47.187Z,59.84
2019-05-01T10:44:47.360Z,58.56
2019-05-01T10:45:47.562Z,61.75
2019-05-01T10:46:47.727Z,62.28
2019-05-01T10:47:47.908Z,62.15
2019-05-01T10:48:48.479Z,62.55
2019-05-01T10:49:48.279Z,62.18
2019-05-01T10:50:48.450Z,60.88
2019-05-01T10:51:48.609Z,59.42
2019-05-01T10:52:48.793Z,61.27
2019-05-01T10:53:48.982Z,59.33
2019-05-01T10:54:49.149Z,55.94
2019-05-01T10:55:49.329Z,57.02
2019-05-01T10:56:49.505Z,57.98
2019-05-01T10:57:49.695Z,59.06
2019-05-01T10:58:49.879Z,57.57
2019-05-01T10:59:50.959Z,59.72
2019-05-01T11:00:50.235Z,58.28
2019-05-01T11:01:50.445Z,59.64
2019-05-01T11:02:50.612Z,61.50
2019-05-01T11:03:50.764Z,56.84
2019-05-01T11:04:50.908Z,59.72
2019-05-01T11:05:56.205Z,59.70
2019-05-01T11:06:53.476Z,59.83
2019-05-01T11:07:51.430Z,63.78
2019-05-01T11:08:51.538Z,63.96
2019-05-01T11:09:51.677Z,64.43
2019-05-01T11:10:51.822Z,64.33
2019-05-01T11:11:52.004Z,62.22
2019-05-01T11:12:52.127Z,61.14
2019-05-01T11:13:52.368Z,64.10
2019-05-01T11:14:52.513Z,63.76
2019-05-01T11:15:52.640Z,61.69
2019-05-01T11:16:53.476Z,60.68
2019-05-01T11:17:52.989Z,58.91
2019-05-01T11:18:53.166Z,58.71
2019-05-01T11:19:53.328Z,58.94
2019-05-01T11:20:53.487Z,59.17
2019-05-01T11:21:53.658Z,58.38
2019-05-01T11:22:53.853Z,58.05
2019-05-01T11:23:54.021Z,57.00
2019-05-01T11:24:54.223Z,59.62
2019-05-01T11:25:54.383Z,57.30
2019-05-01T11:26:54.513Z,58.68
2019-05-01T11:27:54.669Z,58.42
2019-05-01T11:28:55.486Z,58.15
2019-05-01T11:29:54.999Z,58.26
2019-05-01T11:30:55.142Z,58.71
2019-05-01T11:31:55.284Z,57.92
2019-05-01T11:32:55.444Z,57.24
2019-05-01T11:33:56.476Z,55.28
2019-05-01T11:34:55.740Z,54.80
2019-05-01T11:36:08.363Z,54.00
2019-05-01T11:36:57.050Z,55.05
2019-05-01T11:37:56.191Z,59.41
2019-05-01T11:38:56.423Z,54.75
2019-05-01T11:39:57.473Z,54.40
2019-05-01T11:40:56.770Z,52.77
2019-05-01T11:41:56.939Z,55.30
2019-05-01T11:42:57.153Z,55.83
2019-05-01T11:43:57.366Z,55.88
2019-05-01T11:44:57.539Z,56.03
2019-05-01T11:45:57.739Z,54.07
2019-05-01T11:46:57.901Z,53.42
2019-05-01T11:47:58.077Z,53.25
2019-05-01T11:48:58.251Z,54.43
2019-05-01T11:49:58.449Z,52.62
2019-05-01T11:50:58.604Z,50.57
2019-05-01T11:51:58.797Z,50.81
2019-05-01T11:52:58.995Z,52.01
2019-05-01T11:54:02.061Z,53.87
2019-05-01T11:54:59.492Z,55.25
2019-05-01T11:55:59.543Z,51.67
2019-05-01T11:56:59.698Z,54.95
2019-05-01T11:57:59.853Z,49.89
2019-05-01T11:59:00.010Z,51.69
2019-05-01T12:00:00.510Z,48.66
2019-05-01T12:01:00.341Z,51.79
2019-05-01T12:02:02.453Z,50.32
2019-05-01T12:03:01.730Z,51.72
2019-05-01T12:04:01.862Z,51.54
2019-05-01T12:05:01.000Z,51.74
2019-05-01T12:06:01.192Z,51.62
2019-05-01T12:07:01.363Z,50.24
2019-05-01T12:08:01.532Z,53.59
2019-05-01T12:09:01.735Z,55.68
2019-05-01T12:10:01.911Z,51.82
2019-05-01T12:11:02.137Z,49.66
2019-05-01T12:12:02.301Z,50.29
2019-05-01T12:13:02.465Z,51.64
2019-05-01T12:14:02.609Z,52.72
2019-05-01T12:15:03.495Z,49.74
2019-05-01T12:16:02.930Z,51.69
2019-05-01T12:17:03.996Z,50.04
2019-05-01T12:18:03.251Z,50.14
2019-05-01T12:19:03.410Z,50.24
2019-05-01T12:20:03.555Z,51.09
2019-05-01T12:21:03.760Z,51.44
2019-05-01T12:22:03.894Z,50.69
2019-05-01T12:23:04.038Z,49.52
2019-05-01T12:24:04.184Z,48.10
2019-05-01T12:25:04.329Z,50.84
2019-05-01T12:26:04.504Z,48.79
2019-05-01T12:27:04.652Z,46.80
2019-05-01T12:28:04.773Z,47.35
2019-05-01T12:29:04.897Z,46.43
2019-05-01T12:30:05.032Z,46.92
2019-05-01T12:31:05.198Z,48.70
2019-05-01T12:32:05.371Z,45.63
2019-05-01T12:33:05.494Z,45.15
2019-05-01T12:34:06.493Z,46.19
2019-05-01T12:35:05.843Z,46.35
2019-05-01T12:36:06.081Z,46.17
2019-05-01T12:37:06.235Z,48.86
2019-05-01T12:38:06.362Z,48.54
2019-05-01T12:39:06.483Z,49.09
2019-05-01T12:40:06.725Z,49.99
2019-05-01T12:41:07.016Z,49.57
2019-05-01T12:42:07.155Z,47.37
2019-05-01T12:43:07.304Z,47.67
2019-05-01T12:44:07.482Z,47.19
2019-05-01T12:45:07.598Z,46.97
2019-05-01T12:46:07.851Z,45.87
2019-05-01T12:47:08.023Z,47.05
2019-05-01T12:48:08.184Z,48.77
2019-05-01T12:49:08.336Z,47.24
2019-05-01T12:50:08.469Z,49.16
2019-05-01T12:51:08.609Z,48.82
2019-05-01T12:52:10.466Z,48.19
2019-05-01T12:53:10.049Z,51.24
2019-05-01T12:54:09.156Z,50.24
2019-05-01T12:55:10.011Z,51.79